createdAt,value
2023-05-02T00:03:37.233Z,41.77
2023-05-02T00:07:40.083Z,43.97
2023-05-02T00:11:42.816Z,48.60
2023-05-02T00:15:45.986Z,52.37
2023-05-02T00:19:50.036Z,47.83
2023-05-02T00:23:52.850Z,43.57
2023-05-02T00:27:56.164Z,45.43
2023-05-02T00:31:58.884Z,42.80
2023-05-02T00:36:02.902Z,39.60
2023-05-02T00:40:06.464Z,41.43
2023-05-02T00:44:09.369Z,40.97
2023-05-02T00:48:12.650Z,36.93
2023-05-02T00:52:17.030Z,38.47
2023-05-02T00:56:19.702Z,35.77
2023-05-02T01:00:28.413Z,35.40
2023-05-02T01:04:40.677Z,38.07
2023-05-02T01:08:50.758Z,32.60
2023-05-02T01:13:00.938Z,30.40
2023-05-02T01:17:06.253Z,26.90
2023-05-02T01:21:11.235Z,31.23
2023-05-02T01:25:30.965Z,29.13
2023-05-02T01:29:38.245Z,30.23
2023-05-02T01:33:41.625Z,27.50
2023-05-02T01:37:46.529Z,24.87
2023-05-02T01:41:53.293Z,29.00
2023-05-02T01:45:59.075Z,29.17
2023-05-02T01:50:04.308Z,24.50
2023-05-02T01:54:09.519Z,26.60
2023-05-02T01:58:13.106Z,27.33
2023-05-02T02:02:18.698Z,26.63
2023-05-02T02:06:22.728Z,24.17
2023-05-02T02:10:30.643Z,24.00
2023-05-02T02:14:36.148Z,24.87
2023-05-02T02:18:40.592Z,23.77
2023-05-02T02:22:45.286Z,24.63
2023-05-02T02:26:48.030Z,21.07
2023-05-02T02:30:51.200Z,26.37
2023-05-02T02:34:55.426Z,19.63
2023-05-02T02:39:11.523Z,20.57
2023-05-02T02:43:20.350Z,16.97
2023-05-02T02:47:28.382Z,13.37
2023-05-02T02:51:39.405Z,7.70
2023-05-02T02:55:48.827Z,7.93
2023-05-02T03:00:01.122Z,7.37
2023-05-02T03:04:06.876Z,7.57
2023-05-02T03:08:11.076Z,9.23
2023-05-02T03:12:14.190Z,8.90
2023-05-02T03:16:37.402Z,8.27
2023-05-02T03:20:42.922Z,8.47
2023-05-02T03:24:47.459Z,8.07
2023-05-02T03:28:51.418Z,5.80
2023-05-02T03:33:00.421Z,6.80
2023-05-02T03:37:03.202Z,6.10
2023-05-02T03:41:08.633Z,5.90
2023-05-02T03:45:12.070Z,4.70
2023-05-02T03:49:14.839Z,5.27
2023-05-02T03:53:20.396Z,6.53
2023-05-02T03:57:32.267Z,7.13
2023-05-02T04:01:35.616Z,5.47
2023-05-02T04:05:38.732Z,7.03
2023-05-02T04:09:41.963Z,5.83
2023-05-02T04:13:48.387Z,6.87
2023-05-02T04:17:51.101Z,9.17
2023-05-02T04:21:54.895Z,5.43
2023-05-02T04:25:57.773Z,7.07
2023-05-02T04:30:14.636Z,5.77
2023-05-02T04:34:21.818Z,10.77
2023-05-02T04:38:25.215Z,5.67
2023-05-02T04:42:28.174Z,6.60
2023-05-02T04:46:49.100Z,6.37
2023-05-02T04:50:53.522Z,5.80
2023-05-02T04:54:57.123Z,10.90
2023-05-02T04:59:00.816Z,5.53
2023-05-02T05:03:06.398Z,6.40
2023-05-02T05:07:09.580Z,7.47
2023-05-02T05:11:12.519Z,9.00
2023-05-02T05:15:15.702Z,9.30
2023-05-02T05:19:23.831Z,10.63
2023-05-02T05:23:27.259Z,11.63
2023-05-02T05:27:30.474Z,8.20
2023-05-02T05:31:33.676Z,8.30
2023-05-02T05:35:38.703Z,11.57
2023-05-02T05:39:41.526Z,10.90
2023-05-02T05:43:45.154Z,12.37
2023-05-02T05:47:48.553Z,12.63
2023-05-02T05:51:52.923Z,12.80
2023-05-02T05:55:55.663Z,10.60
2023-05-02T05:59:58.872Z,13.70
2023-05-02T06:04:02.958Z,17.77
2023-05-02T06:08:07.390Z,15.07
2023-05-02T06:12:10.126Z,14.30
2023-05-02T06:16:14.323Z,16.43
2023-05-02T06:20:18.710Z,18.37
2023-05-02T06:24:23.054Z,11.57
2023-05-02T06:28:25.698Z,10.17
2023-05-02T06:32:31.484Z,17.23
2023-05-02T06:36:34.235Z,10.33
2023-05-02T06:40:45.116Z,13.33
2023-05-02T06:44:47.761Z,10.07
2023-05-02T06:48:50.682Z,9.97
2023-05-02T06:52:53.536Z,11.30
2023-05-02T06:56:57.584Z,10.50
2023-05-02T07:01:00.281Z,8.43
2023-05-02T07:05:03.117Z,11.63
2023-05-02T07:09:10.802Z,8.10
2023-05-02T07:13:14.869Z,13.37
2023-05-02T07:17:17.704Z,10.97
2023-05-02T07:21:20.447Z,7.90
2023-05-02T07:25:23.087Z,8.90
2023-05-02T07:29:27.197Z,6.13
2023-05-02T07:33:30.238Z,4.83
2023-05-02T07:37:35.204Z,5.07
2023-05-02T07:41:37.923Z,9.17
2023-05-02T07:45:41.998Z,6.00
2023-05-02T07:49:44.840Z,4.77
2023-05-02T07:53:47.686Z,3.70
2023-05-02T07:57:50.418Z,4.17
2023-05-02T08:01:54.451Z,5.87
2023-05-02T08:05:57.227Z,5.63
2023-05-02T08:10:00.171Z,4.87
2023-05-02T08:14:03.347Z,4.53
2023-05-02T08:18:07.437Z,7.30
2023-05-02T08:22:10.306Z,8.33
2023-05-02T08:26:12.989Z,4.33
2023-05-02T08:30:15.797Z,5.50
2023-05-02T08:34:19.763Z,5.20
2023-05-02T08:38:22.481Z,4.03
2023-05-02T08:42:25.823Z,6.07
2023-05-02T08:46:29.961Z,3.93
2023-05-02T08:50:36.756Z,5.80
2023-05-02T08:54:39.890Z,5.30
2023-05-02T08:58:42.885Z,3.97
2023-05-02T09:02:59.079Z,7.03
2023-05-02T09:07:03.921Z,5.80
2023-05-02T09:11:07.924Z,6.30
2023-05-02T09:15:12.326Z,5.10
2023-05-02T09:19:25.984Z,9.90
2023-05-02T09:23:38.397Z,3.70
2023-05-02T09:27:52.054Z,4.00
2023-05-02T09:31:56.652Z,4.23
2023-05-02T09:35:59.495Z,6.37
2023-05-02T09:40:11.073Z,5.67
2023-05-02T09:44:15.556Z,4.77
2023-05-02T09:48:18.232Z,6.37
2023-05-02T09:52:22.490Z,5.00
2023-05-02T09:56:26.766Z,7.77
2023-05-02T10:00:43.484Z,7.13
2023-05-02T10:04:48.161Z,3.67
2023-05-02T10:08:51.045Z,10.83
2023-05-02T10:12:56.189Z,6.73
2023-05-02T10:17:02.761Z,12.20
2023-05-02T10:21:10.087Z,7.43
2023-05-02T10:25:13.490Z,6.57
2023-05-02T10:29:17.745Z,5.27
2023-05-02T10:33:22.201Z,7.27
2023-05-02T10:37:26.547Z,8.73
2023-05-02T10:41:33.041Z,8.13
2023-05-02T10:45:38.601Z,5.80
2023-05-02T10:49:50.954Z,8.20
2023-05-02T10:53:53.796Z,7.97
2023-05-02T10:58:21.960Z,6.60
2023-05-02T11:02:50.180Z,6.60
2023-05-02T11:07:18.159Z,8.17
2023-05-02T11:11:41.367Z,5.97
2023-05-02T11:15:57.739Z,5.77
2023-05-02T11:20:26.932Z,8.43
2023-05-02T11:24:39.828Z,6.00
2023-05-02T11:28:47.882Z,6.00
2023-05-02T12:38:10.313Z,5.37
2023-05-02T12:42:13.953Z,6.83
2023-05-02T12:46:17.240Z,5.27
2023-05-02T12:50:19.951Z,5.67
2023-05-02T12:54:24.394Z,6.23
2023-05-02T12:58:28.512Z,5.57
2023-05-02T13:02:31.945Z,10.30
2023-05-02T13:06:37.647Z,6.17
2023-05-02T13:10:41.879Z,5.30
2023-05-02T13:14:45.103Z,5.53
2023-05-02T13:18:48.065Z,8.10
2023-05-02T13:22:51.086Z,6.37
2023-05-02T13:26:55.621Z,4.27
2023-05-02T13:30:58.286Z,7.40
2023-05-02T13:35:01.313Z,4.27
2023-05-02T13:39:04.390Z,5.90
2023-05-02T13:43:08.512Z,5.83
2023-05-02T13:47:11.190Z,4.57
2023-05-02T13:51:13.891Z,6.00
2023-05-02T13:55:16.997Z,4.97
2023-05-02T13:59:21.000Z,4.30
2023-05-02T14:03:23.704Z,7.50
2023-05-02T14:07:26.442Z,4.10
2023-05-02T14:11:29.089Z,4.57
2023-05-02T14:15:33.161Z,7.90
2023-05-02T14:19:35.892Z,4.50
2023-05-02T14:23:38.587Z,4.43
2023-05-02T14:27:41.915Z,5.03
2023-05-02T14:31:46.563Z,4.27
2023-05-02T14:35:49.823Z,4.57
2023-05-02T14:39:56.061Z,3.40
2023-05-02T14:43:58.930Z,4.87
2023-05-02T14:48:03.018Z,4.37
2023-05-02T14:52:05.850Z,4.40
2023-05-02T14:56:13.447Z,2.87
2023-05-02T15:00:17.385Z,5.20
2023-05-02T15:04:21.477Z,3.83
2023-05-02T15:08:25.129Z,5.67
2023-05-02T15:12:27.812Z,2.93
2023-05-02T15:16:30.842Z,5.00
2023-05-02T15:20:34.861Z,3.57
2023-05-02T15:24:37.707Z,3.70
2023-05-02T15:28:40.640Z,2.63
2023-05-02T15:32:43.269Z,3.57
2023-05-02T15:36:47.270Z,6.87
2023-05-02T15:40:57.015Z,3.00
2023-05-02T15:44:59.982Z,4.03
2023-05-02T15:49:02.657Z,4.13
2023-05-02T15:53:06.741Z,2.83
2023-05-02T15:57:10.197Z,3.90
2023-05-02T16:01:12.956Z,4.00
2023-05-02T16:05:15.688Z,4.53
2023-05-02T16:09:20.907Z,4.20
2023-05-02T16:13:23.544Z,3.90
2023-05-02T16:17:26.365Z,2.80
2023-05-02T16:21:29.348Z,3.27
2023-05-02T16:25:33.378Z,4.17
2023-05-02T16:29:36.098Z,2.97
2023-05-02T16:33:39.023Z,3.97
2023-05-02T16:37:42.905Z,4.13
2023-05-02T16:41:47.080Z,4.77
2023-05-02T16:45:49.697Z,3.53
2023-05-02T16:49:55.589Z,2.83
2023-05-02T16:53:58.289Z,3.90
2023-05-02T16:58:02.234Z,3.67
2023-05-02T17:02:04.927Z,3.10
2023-05-02T17:06:08.162Z,3.03
2023-05-02T17:10:12.333Z,3.50
2023-05-02T17:14:16.389Z,3.07
2023-05-02T17:18:19.198Z,2.50
2023-05-02T17:22:21.911Z,3.10
2023-05-02T17:26:24.852Z,4.83
2023-05-02T17:30:29.029Z,3.20
2023-05-02T17:34:33.380Z,3.70
2023-05-02T17:38:36.088Z,3.97
2023-05-02T17:42:45.409Z,6.00
2023-05-02T17:46:49.769Z,4.00
2023-05-02T17:50:53.323Z,3.00
2023-05-02T17:54:56.040Z,4.17
2023-05-02T17:58:59.607Z,2.87
2023-05-02T18:03:03.753Z,2.80
2023-05-02T18:07:06.571Z,3.03
2023-05-02T18:11:14.825Z,3.70
2023-05-02T18:15:17.625Z,3.67
2023-05-02T18:19:22.901Z,6.57
2023-05-02T18:23:25.585Z,6.30
2023-05-02T18:27:28.482Z,2.70
2023-05-02T18:31:31.971Z,2.63
2023-05-02T18:35:36.453Z,2.40
2023-05-02T18:39:39.191Z,4.63
2023-05-02T18:43:41.834Z,4.37
2023-05-02T18:47:44.534Z,2.77
2023-05-02T18:51:48.591Z,2.23
2023-05-02T18:55:51.457Z,2.87
2023-05-02T18:59:54.151Z,2.60
2023-05-02T19:03:57.374Z,2.13
2023-05-02T19:08:01.505Z,3.33
2023-05-02T19:12:04.221Z,4.23
2023-05-02T19:16:11.374Z,2.40
2023-05-02T19:20:14.121Z,2.30
2023-05-02T19:24:18.448Z,2.70
2023-05-02T19:28:21.650Z,3.30
2023-05-02T19:32:25.132Z,2.97
2023-05-02T19:36:28.376Z,2.77
2023-05-02T19:40:32.448Z,4.40
2023-05-02T19:44:35.135Z,3.73
2023-05-02T19:48:37.916Z,2.37
2023-05-02T19:52:41.600Z,3.30
2023-05-02T19:56:48.646Z,2.63
2023-05-02T20:00:51.761Z,2.90
2023-05-02T20:04:54.854Z,2.93
2023-05-02T20:08:57.525Z,3.00
2023-05-02T20:13:01.535Z,2.77
2023-05-02T20:17:04.623Z,2.60
2023-05-02T20:21:07.389Z,3.23
2023-05-02T20:25:11.492Z,5.40
2023-05-02T20:29:15.557Z,7.90
2023-05-02T20:33:19.708Z,2.70
2023-05-02T20:37:22.990Z,4.60
2023-05-02T20:41:26.716Z,2.67
2023-05-02T20:45:30.687Z,3.80
2023-05-02T20:49:33.974Z,3.80
2023-05-02T20:53:36.837Z,2.80
2023-05-02T20:57:41.277Z,3.03
2023-05-02T21:01:45.296Z,7.57
2023-05-02T21:05:53.746Z,3.70
2023-05-02T21:09:56.389Z,4.30
2023-05-02T21:14:00.063Z,3.53
2023-05-02T21:18:04.862Z,3.17
2023-05-02T21:22:07.621Z,5.13
2023-05-02T21:26:10.451Z,6.17
2023-05-02T21:30:14.216Z,3.37
2023-05-02T21:34:18.813Z,6.60
2023-05-02T21:38:21.606Z,3.87
2023-05-02T21:42:24.382Z,4.53
2023-05-02T21:46:27.170Z,3.33
2023-05-02T21:50:31.285Z,4.37
2023-05-02T21:54:34.470Z,3.93
2023-05-02T21:58:37.248Z,2.70
2023-05-02T22:02:39.933Z,3.83
2023-05-02T22:06:44.112Z,4.03
2023-05-02T22:10:46.848Z,3.33
2023-05-02T22:14:49.981Z,3.83
2023-05-02T22:18:52.658Z,3.57
2023-05-02T22:22:56.695Z,6.53
2023-05-02T22:26:59.383Z,4.13
2023-05-02T22:31:01.988Z,3.90
2023-05-02T22:35:04.859Z,2.93
2023-05-02T22:39:12.835Z,3.13
2023-05-02T22:43:15.836Z,4.20
2023-05-02T22:47:18.701Z,3.60
2023-05-02T22:51:21.371Z,3.13
2023-05-02T22:55:25.774Z,2.90
2023-05-02T22:59:29.580Z,4.23
2023-05-02T23:03:32.431Z,4.27
2023-05-02T23:07:35.172Z,3.57
2023-05-02T23:11:39.160Z,3.97
2023-05-02T23:15:42.044Z,3.97
2023-05-02T23:19:44.738Z,9.97
2023-05-02T23:23:47.338Z,5.07
2023-05-02T23:27:51.713Z,3.10
2023-05-02T23:31:55.432Z,3.43
2023-05-02T23:35:58.678Z,3.33
2023-05-02T23:40:02.655Z,4.17
2023-05-02T23:44:07.009Z,4.07
2023-05-02T23:48:09.783Z,4.17
2023-05-02T23:52:12.470Z,3.90
2023-05-02T23:56:15.276Z,4.53
